Germantown, Maryland
Current Conditions -  °F | °C
As of 2:15 PM on Thursday 23 Oct 2014 (Local Time) from KGAI Reporting Station
Overcast Overcast  
Wind Chill: 15°   Ceiling: 3700
Heat Index: 15°   Visibility: 10mi
Dew Point:   Wind: 16mph
Humidity: 59%   Direction: 310°NW
Pressure: 29.9"   Gusts: 26mph
Location:  39.18°N, 77.27°W
Report Text: KGAI 231815Z 31014G23KT 10SM BKN037 OVC047 15/07 A2990 RMK AO1
Loading
Personal Weather Stations






























Interactive Weather Map
Tropical Storm Tracking
New forecast layout! Learn more

10-Day Weather Forecast

Advertisements
Track Severe Weather on mobile